Terminal Aerodrome Forecast
Issued by NWS Wichita, KS

Home | Current Version | Previous Version | Text Only | Print | Product List | Glossary Off
Versions: 1 2 3 4 5 6 7 8 9 10 11 12 13 14 15 16 17 18 19 20 21

128
FTUS43 KICT 180533
TAFICT
TAF
KICT 180533Z 1806/1906 23010KT P6SM SCT200
     FM180830 32017G25KT P6SM SCT020 BKN120
     FM181100 34025G33KT P6SM BKN020
     FM181500 34026G36KT P6SM SCT030
     FM190000 32010KT P6SM SKC=

USA.gov is the U.S. government's official web portal to all federal, state and local government web resources and services.